createdAt,value
2023-05-09T00:02:03.352Z,26.40
2023-05-09T00:04:32.790Z,25.90
2023-05-09T00:07:00.653Z,26.22
2023-05-09T00:09:28.551Z,26.28
2023-05-09T00:11:56.411Z,26.40
2023-05-09T00:14:24.924Z,25.92
2023-05-09T00:16:53.738Z,26.08
2023-05-09T00:19:23.064Z,26.40
2023-05-09T00:21:50.929Z,26.28
2023-05-09T00:24:18.900Z,26.66
2023-05-09T00:26:46.950Z,26.51
2023-05-09T00:29:14.738Z,26.22
2023-05-09T00:31:42.804Z,26.51
2023-05-09T00:34:11.048Z,26.53
2023-05-09T00:36:40.468Z,26.40
2023-05-09T00:39:09.604Z,26.08
2023-05-09T00:41:37.381Z,26.44
2023-05-09T00:44:05.883Z,26.57
2023-05-09T00:46:33.954Z,26.47
2023-05-09T00:49:01.979Z,26.55
2023-05-09T00:51:30.434Z,26.57
2023-05-09T00:54:00.056Z,26.64
2023-05-09T00:56:28.024Z,26.20
2023-05-09T00:58:56.644Z,26.50
2023-05-09T01:01:24.584Z,26.40
2023-05-09T01:03:53.216Z,26.39
2023-05-09T01:06:31.473Z,26.30
2023-05-09T01:09:07.355Z,26.77
2023-05-09T01:11:40.479Z,26.64
2023-05-09T01:14:16.787Z,26.61
2023-05-09T01:16:55.145Z,26.62
2023-05-09T01:19:41.836Z,26.61
2023-05-09T01:22:13.631Z,26.98
2023-05-09T01:25:03.128Z,26.69
2023-05-09T01:27:45.228Z,26.39
2023-05-09T01:30:17.518Z,26.56
2023-05-09T01:32:50.844Z,26.53
2023-05-09T01:35:19.825Z,26.69
2023-05-09T01:37:51.917Z,26.88
2023-05-09T01:40:21.869Z,26.48
2023-05-09T01:42:53.570Z,26.53
2023-05-09T01:45:24.879Z,26.76
2023-05-09T01:47:53.143Z,26.94
2023-05-09T01:50:22.767Z,27.10
2023-05-09T01:52:53.675Z,26.81
2023-05-09T01:55:25.564Z,26.66
2023-05-09T01:57:54.949Z,27.23
2023-05-09T02:00:25.423Z,26.78
2023-05-09T02:02:53.682Z,27.00
2023-05-09T02:05:23.240Z,27.27
2023-05-09T02:07:51.275Z,27.34
2023-05-09T02:10:20.855Z,26.93
2023-05-09T02:12:48.778Z,26.87
2023-05-09T02:15:17.028Z,27.22
2023-05-09T02:17:46.568Z,27.40
2023-05-09T02:20:14.412Z,26.92
2023-05-09T02:22:44.474Z,27.42
2023-05-09T02:25:15.598Z,27.13
2023-05-09T02:27:46.282Z,27.40
2023-05-09T02:30:20.590Z,27.01
2023-05-09T02:32:51.573Z,27.39
2023-05-09T02:35:20.218Z,27.43
2023-05-09T02:37:49.535Z,27.30
2023-05-09T02:40:17.772Z,27.47
2023-05-09T02:42:45.528Z,27.49
2023-05-09T02:45:13.794Z,27.33
2023-05-09T02:47:42.284Z,27.08
2023-05-09T02:50:12.439Z,27.51
2023-05-09T02:52:41.108Z,27.39
2023-05-09T02:55:10.149Z,27.69
2023-05-09T02:57:38.034Z,27.55
2023-05-09T03:00:09.365Z,27.35
2023-05-09T03:02:37.467Z,27.87
2023-05-09T03:05:05.995Z,27.87
2023-05-09T03:07:35.224Z,27.71
2023-05-09T03:10:03.103Z,27.72
2023-05-09T03:12:31.223Z,27.54
2023-05-09T03:14:59.064Z,28.00
2023-05-09T03:17:27.610Z,27.93
2023-05-09T03:19:55.830Z,27.69
2023-05-09T03:22:23.589Z,28.14
2023-05-09T03:24:52.710Z,27.83
2023-05-09T03:27:20.815Z,28.28
2023-05-09T03:29:48.533Z,27.88
2023-05-09T03:32:16.484Z,28.00
2023-05-09T03:34:44.255Z,28.29
2023-05-09T03:37:12.132Z,28.44
2023-05-09T03:39:42.395Z,28.20
2023-05-09T03:42:11.696Z,28.37
2023-05-09T03:44:39.499Z,28.58
2023-05-09T03:47:07.607Z,28.61
2023-05-09T03:49:35.642Z,29.04
2023-05-09T03:52:04.288Z,28.84
2023-05-09T03:54:32.250Z,29.01
2023-05-09T03:57:00.177Z,28.84
2023-05-09T03:59:30.480Z,28.97
2023-05-09T04:01:58.411Z,28.99
2023-05-09T04:04:26.679Z,29.08
2023-05-09T04:06:54.587Z,29.29
2023-05-09T04:09:22.499Z,29.75
2023-05-09T04:11:50.450Z,29.47
2023-05-09T04:14:18.244Z,29.50
2023-05-09T04:16:47.452Z,29.98
2023-05-09T04:19:15.370Z,30.14
2023-05-09T04:21:43.168Z,29.75
2023-05-09T04:24:11.025Z,30.36
2023-05-09T04:26:39.073Z,29.75
2023-05-09T04:29:06.947Z,29.61
2023-05-09T04:31:36.038Z,30.44
2023-05-09T04:34:05.277Z,30.07
2023-05-09T04:36:33.954Z,30.01
2023-05-09T04:39:05.213Z,30.27
2023-05-09T04:41:33.096Z,30.24
2023-05-09T04:44:00.975Z,30.93
2023-05-09T04:46:28.925Z,30.74
2023-05-09T04:48:56.785Z,30.93
2023-05-09T04:51:26.089Z,30.80
2023-05-09T04:53:53.927Z,31.25
2023-05-09T04:56:21.905Z,30.94
2023-05-09T04:58:49.820Z,31.30
2023-05-09T05:01:17.834Z,31.19
2023-05-09T05:03:46.123Z,30.97
2023-05-09T05:06:13.988Z,31.24
2023-05-09T05:08:43.233Z,32.04
2023-05-09T05:11:11.044Z,31.63
2023-05-09T05:13:39.016Z,31.33
2023-05-09T05:16:07.073Z,32.21
2023-05-09T05:18:35.031Z,32.06
2023-05-09T05:21:03.004Z,31.98
2023-05-09T05:23:30.794Z,32.52
2023-05-09T05:26:00.255Z,32.00
2023-05-09T05:28:28.067Z,32.44
2023-05-09T05:30:55.980Z,32.32
2023-05-09T05:33:23.853Z,32.73
2023-05-09T05:35:51.712Z,32.97
2023-05-09T05:38:19.748Z,32.71
2023-05-09T05:40:47.754Z,32.93
2023-05-09T05:43:16.870Z,32.95
2023-05-09T05:45:44.636Z,33.02
2023-05-09T05:48:12.548Z,33.06
2023-05-09T05:50:40.321Z,33.34
2023-05-09T05:53:08.050Z,33.28
2023-05-09T05:55:35.961Z,33.53
2023-05-09T05:58:03.759Z,33.59
2023-05-09T06:00:33.019Z,33.77
2023-05-09T06:03:00.890Z,33.94
2023-05-09T06:05:28.685Z,34.01
2023-05-09T06:07:56.547Z,34.07
2023-05-09T06:10:24.423Z,34.00
2023-05-09T06:12:52.375Z,33.92
2023-05-09T06:15:20.171Z,34.30
2023-05-09T06:17:50.028Z,34.63
2023-05-09T06:20:18.155Z,34.19
2023-05-09T06:22:45.972Z,34.42
2023-05-09T06:25:14.196Z,34.46
2023-05-09T06:27:42.853Z,34.76
2023-05-09T06:30:24.502Z,34.91
2023-05-09T06:32:54.593Z,34.75
2023-05-09T06:35:22.710Z,34.98
2023-05-09T06:37:50.503Z,35.06
2023-05-09T06:40:18.575Z,35.20
2023-05-09T06:42:46.562Z,34.86
2023-05-09T06:45:14.667Z,35.15
2023-05-09T06:47:42.743Z,35.05
2023-05-09T06:50:12.497Z,34.96
2023-05-09T06:52:40.352Z,35.18
2023-05-09T06:55:09.908Z,35.49
2023-05-09T06:57:38.038Z,35.52
2023-05-09T07:00:07.287Z,35.49
2023-05-09T07:02:35.177Z,35.70
2023-05-09T07:05:03.183Z,35.81
2023-05-09T07:07:32.401Z,35.73
2023-05-09T07:10:10.669Z,35.86
2023-05-09T07:12:41.978Z,35.96
2023-05-09T07:15:11.203Z,35.81
2023-05-09T07:17:39.272Z,36.09
2023-05-09T07:20:08.787Z,36.10
2023-05-09T07:22:38.549Z,36.30
2023-05-09T07:25:09.074Z,36.25
2023-05-09T07:27:37.154Z,36.25
2023-05-09T07:30:05.597Z,36.28
2023-05-09T07:32:33.554Z,36.50
2023-05-09T07:35:01.414Z,36.32
2023-05-09T07:37:29.221Z,36.42
2023-05-09T07:39:58.348Z,36.42
2023-05-09T07:42:26.430Z,36.71
2023-05-09T07:44:54.586Z,36.71
2023-05-09T07:47:22.602Z,36.72
2023-05-09T07:49:50.478Z,36.76
2023-05-09T07:52:18.688Z,36.82
2023-05-09T07:54:46.546Z,36.77
2023-05-09T07:57:16.113Z,36.80
2023-05-09T07:59:44.192Z,36.99
2023-05-09T08:02:11.983Z,36.86
2023-05-09T08:04:41.492Z,37.00
2023-05-09T08:07:09.611Z,36.94
2023-05-09T08:09:37.595Z,37.03
2023-05-09T08:12:06.085Z,37.06
2023-05-09T08:14:35.616Z,37.08
2023-05-09T08:17:03.464Z,37.05
2023-05-09T08:19:31.229Z,37.15
2023-05-09T08:21:59.096Z,37.21
2023-05-09T08:24:26.838Z,37.06
2023-05-09T08:26:55.848Z,37.21
2023-05-09T08:29:23.696Z,37.27
2023-05-09T08:31:53.023Z,37.37
2023-05-09T08:34:22.305Z,37.26
2023-05-09T08:36:50.202Z,37.34
2023-05-09T08:39:18.192Z,37.36
2023-05-09T08:41:46.481Z,37.53
2023-05-09T08:44:14.670Z,37.42
2023-05-09T08:46:45.421Z,37.55
2023-05-09T08:49:17.132Z,37.64
2023-05-09T08:51:45.976Z,37.39
2023-05-09T08:54:14.387Z,37.43
2023-05-09T08:56:43.143Z,37.34
2023-05-09T08:59:11.255Z,37.66
2023-05-09T09:01:39.437Z,37.51
2023-05-09T09:04:08.948Z,37.77
2023-05-09T09:06:38.968Z,37.34
2023-05-09T09:09:08.557Z,37.50
2023-05-09T09:11:37.450Z,37.71
2023-05-09T09:14:09.769Z,37.80
2023-05-09T09:16:38.757Z,37.42
2023-05-09T09:19:12.551Z,37.42
2023-05-09T09:21:43.788Z,37.79
2023-05-09T09:24:16.128Z,37.60
2023-05-09T09:26:50.006Z,37.74
2023-05-09T09:29:18.945Z,37.68
2023-05-09T09:31:55.705Z,37.42
2023-05-09T09:34:24.740Z,37.52
2023-05-09T09:36:54.226Z,37.78
2023-05-09T09:39:22.445Z,37.56
2023-05-09T09:41:50.442Z,37.49
2023-05-09T09:44:20.545Z,37.50
2023-05-09T09:46:50.629Z,37.25
2023-05-09T09:49:20.248Z,37.59
2023-05-09T09:51:52.145Z,37.48
2023-05-09T09:54:21.892Z,37.54
2023-05-09T09:56:51.808Z,37.34
2023-05-09T09:59:21.272Z,37.04
2023-05-09T10:02:06.641Z,36.97
2023-05-09T10:04:37.036Z,36.94
2023-05-09T10:07:07.398Z,36.85
2023-05-09T10:09:38.139Z,36.88
2023-05-09T10:12:07.308Z,36.64
2023-05-09T10:14:37.729Z,36.72
2023-05-09T10:17:06.880Z,36.68
2023-05-09T10:19:36.867Z,36.55
2023-05-09T10:22:06.866Z,36.80
2023-05-09T10:24:41.959Z,36.76
2023-05-09T10:27:12.797Z,36.53
2023-05-09T10:29:46.093Z,36.53
2023-05-09T10:32:20.545Z,36.44
2023-05-09T10:34:52.479Z,36.44
2023-05-09T10:37:22.451Z,36.31
2023-05-09T10:39:53.908Z,36.29
2023-05-09T10:42:25.256Z,35.92
2023-05-09T10:44:54.697Z,35.81
2023-05-09T10:47:23.371Z,36.04
2023-05-09T10:49:51.338Z,35.96
2023-05-09T10:52:19.212Z,35.48
2023-05-09T10:55:01.650Z,35.59
2023-05-09T10:57:30.679Z,35.46
2023-05-09T11:00:00.156Z,35.24
2023-05-09T11:02:31.008Z,35.14
2023-05-09T11:05:15.938Z,35.16
2023-05-09T11:07:44.418Z,34.99
2023-05-09T11:10:17.751Z,35.40
2023-05-09T11:12:58.019Z,34.92
2023-05-09T11:15:27.619Z,34.89
2023-05-09T11:18:07.928Z,34.80
2023-05-09T11:20:43.520Z,34.70
2023-05-09T11:23:11.941Z,34.85
2023-05-09T11:25:46.536Z,34.73
2023-05-09T11:28:28.893Z,34.41
2023-05-09T11:31:10.855Z,34.50
2023-05-09T11:33:40.224Z,34.17
2023-05-09T11:36:19.931Z,34.16
2023-05-09T11:38:48.693Z,34.07
2023-05-09T11:41:18.164Z,33.92
2023-05-09T11:43:46.417Z,34.08
2023-05-09T11:46:14.207Z,33.97
2023-05-09T11:48:42.940Z,33.74
2023-05-09T11:51:18.354Z,33.77
2023-05-09T11:53:47.026Z,33.88
2023-05-09T11:56:17.508Z,33.86
2023-05-09T11:58:46.756Z,33.54
2023-05-09T12:01:14.620Z,33.49
2023-05-09T12:03:46.038Z,33.76
2023-05-09T12:06:18.266Z,33.47
2023-05-09T12:08:47.397Z,33.44
2023-05-09T12:11:17.280Z,33.25
2023-05-09T12:13:49.665Z,33.11
2023-05-09T12:16:19.256Z,33.12
2023-05-09T12:18:48.211Z,33.01
2023-05-09T12:21:16.530Z,32.96
2023-05-09T12:23:44.628Z,33.06
2023-05-09T12:26:12.569Z,32.93
2023-05-09T12:28:42.682Z,32.82
2023-05-09T12:31:10.731Z,32.68
2023-05-09T12:33:39.899Z,32.66
2023-05-09T12:36:10.316Z,32.51
2023-05-09T12:38:38.904Z,32.54
2023-05-09T12:41:15.472Z,32.72
2023-05-09T12:43:51.729Z,32.38
2023-05-09T12:46:20.363Z,32.44
2023-05-09T12:48:49.516Z,32.46
2023-05-09T12:51:20.387Z,32.60
2023-05-09T12:53:50.101Z,32.45
2023-05-09T12:56:19.603Z,32.52
2023-05-09T12:58:53.010Z,32.25
2023-05-09T13:01:21.990Z,32.11
2023-05-09T13:03:53.500Z,32.15
2023-05-09T13:06:21.676Z,32.03
2023-05-09T13:08:58.908Z,31.56
2023-05-09T13:11:26.903Z,31.75
2023-05-09T13:13:56.730Z,31.88
2023-05-09T13:16:24.883Z,31.62
2023-05-09T13:18:52.692Z,31.83
2023-05-09T13:21:21.036Z,31.59
2023-05-09T13:23:50.201Z,31.54
2023-05-09T13:26:18.121Z,31.58
2023-05-09T13:28:45.943Z,31.58
2023-05-09T13:31:15.338Z,31.47
2023-05-09T13:33:43.199Z,31.76
2023-05-09T13:36:11.153Z,31.28
2023-05-09T13:38:40.979Z,31.56
2023-05-09T13:41:08.931Z,31.53
2023-05-09T13:43:37.562Z,31.28
2023-05-09T13:46:05.461Z,31.39
2023-05-09T13:48:34.627Z,31.19
2023-05-09T13:51:02.476Z,30.93
2023-05-09T13:53:30.407Z,31.10
2023-05-09T13:55:58.433Z,30.84
2023-05-09T13:58:26.252Z,31.14
2023-05-09T14:00:54.038Z,30.84
2023-05-09T14:03:21.915Z,31.00
2023-05-09T14:05:51.854Z,30.57
2023-05-09T14:08:21.308Z,30.59
2023-05-09T14:10:50.078Z,30.73
2023-05-09T14:13:18.215Z,30.79
2023-05-09T14:15:48.501Z,30.54
2023-05-09T14:18:20.057Z,30.55
2023-05-09T14:20:49.120Z,30.75
2023-05-09T14:23:18.466Z,30.47
2023-05-09T14:25:46.319Z,30.63
2023-05-09T14:28:14.604Z,30.48
2023-05-09T14:30:42.952Z,30.33
2023-05-09T14:33:14.516Z,30.44
2023-05-09T14:35:42.391Z,30.25
2023-05-09T14:38:10.352Z,30.32
2023-05-09T14:40:39.522Z,30.56
2023-05-09T14:43:07.431Z,30.08
2023-05-09T14:45:35.506Z,30.37
2023-05-09T14:48:03.969Z,30.13
2023-05-09T14:50:32.066Z,30.27
2023-05-09T14:53:03.832Z,29.90
2023-05-09T14:55:32.504Z,30.12
2023-05-09T14:58:02.559Z,29.63
2023-05-09T15:00:31.020Z,29.81
2023-05-09T15:02:58.999Z,29.92
2023-05-09T15:05:26.891Z,29.73
2023-05-09T15:07:54.805Z,29.73
2023-05-09T15:10:22.902Z,29.66
2023-05-09T15:12:50.872Z,29.64
2023-05-09T15:15:21.658Z,29.79
2023-05-09T15:17:49.593Z,29.56
2023-05-09T15:20:18.662Z,29.35
2023-05-09T15:22:47.676Z,29.56
2023-05-09T15:25:16.820Z,29.36
2023-05-09T15:27:44.868Z,29.51
2023-05-09T15:30:13.992Z,29.52
2023-05-09T15:32:43.576Z,29.08
2023-05-09T15:35:11.487Z,29.27
2023-05-09T15:37:39.549Z,29.17
2023-05-09T15:40:09.247Z,29.04
2023-05-09T15:42:37.655Z,29.18
2023-05-09T15:45:06.519Z,29.05
2023-05-09T15:47:34.330Z,28.97
2023-05-09T15:50:03.551Z,29.09
2023-05-09T15:52:31.918Z,28.86
2023-05-09T15:54:59.898Z,28.91
2023-05-09T15:57:28.033Z,28.78
2023-05-09T15:59:56.117Z,28.79
2023-05-09T16:02:24.261Z,28.78
2023-05-09T16:04:52.496Z,28.67
2023-05-09T16:07:21.948Z,28.65
2023-05-09T16:09:50.015Z,28.62
2023-05-09T16:12:17.974Z,28.63
2023-05-09T16:14:45.985Z,28.65
2023-05-09T16:17:14.023Z,28.61
2023-05-09T16:19:42.444Z,28.49
2023-05-09T16:22:10.369Z,28.57
2023-05-09T16:24:39.478Z,28.67
2023-05-09T16:27:07.503Z,28.44
2023-05-09T16:29:35.280Z,28.27
2023-05-09T16:32:04.222Z,28.37
2023-05-09T16:34:32.953Z,28.36
2023-05-09T16:37:01.407Z,28.11
2023-05-09T16:39:29.683Z,28.09
2023-05-09T16:41:59.693Z,28.08
2023-05-09T16:44:27.603Z,27.98
2023-05-09T16:46:55.346Z,28.02
2023-05-09T16:49:23.187Z,28.10
2023-05-09T16:51:50.952Z,27.81
2023-05-09T16:54:18.755Z,27.85
2023-05-09T16:56:46.818Z,28.00
2023-05-09T16:59:17.360Z,27.83
2023-05-09T17:01:45.151Z,27.98
2023-05-09T17:04:12.989Z,27.88
2023-05-09T17:06:40.810Z,27.65
2023-05-09T17:09:08.702Z,27.68
2023-05-09T17:11:36.691Z,27.67
2023-05-09T17:14:04.792Z,27.97
2023-05-09T17:16:35.300Z,27.52
2023-05-09T17:19:05.283Z,27.54
2023-05-09T17:21:33.240Z,27.93
2023-05-09T17:24:02.013Z,27.83
2023-05-09T17:26:30.670Z,27.83
2023-05-09T17:28:58.449Z,27.59
2023-05-09T17:31:26.539Z,27.50
2023-05-09T17:33:55.956Z,27.65
2023-05-09T17:36:23.829Z,27.74
2023-05-09T17:38:52.270Z,27.62
2023-05-09T17:41:20.377Z,27.79
2023-05-09T17:43:51.920Z,27.32
2023-05-09T17:46:20.022Z,27.48
2023-05-09T17:48:48.291Z,27.40
2023-05-09T17:51:17.906Z,27.59
2023-05-09T17:53:46.809Z,27.65
2023-05-09T17:56:14.710Z,27.29
2023-05-09T17:58:42.482Z,27.52
2023-05-09T18:01:10.765Z,27.42
2023-05-09T18:03:39.363Z,27.30
2023-05-09T18:06:07.511Z,27.46
2023-05-09T18:08:37.093Z,27.52
2023-05-09T18:11:05.616Z,27.42
2023-05-09T18:13:34.381Z,27.58
2023-05-09T18:16:02.798Z,27.19
2023-05-09T18:18:32.355Z,27.38
2023-05-09T18:21:00.393Z,27.41
2023-05-09T18:23:28.404Z,27.31
2023-05-09T18:25:57.660Z,27.37
2023-05-09T18:28:27.457Z,27.55
2023-05-09T18:30:56.887Z,27.35
2023-05-09T18:33:26.328Z,27.53
2023-05-09T18:35:55.045Z,27.49
2023-05-09T18:38:23.831Z,27.33
2023-05-09T18:40:52.290Z,27.53
2023-05-09T18:43:22.462Z,27.40
2023-05-09T18:45:51.892Z,27.39
2023-05-09T18:48:20.117Z,27.11
2023-05-09T18:50:48.893Z,27.36
2023-05-09T18:53:16.760Z,27.46
2023-05-09T18:55:44.711Z,27.50
2023-05-09T18:58:12.564Z,27.36
2023-05-09T19:00:42.860Z,27.28
2023-05-09T19:03:10.713Z,27.41
2023-05-09T19:05:38.656Z,27.53
2023-05-09T19:08:07.058Z,27.71
2023-05-09T19:10:36.197Z,27.21
2023-05-09T19:13:04.180Z,27.16
2023-05-09T19:15:32.148Z,27.53
2023-05-09T19:18:02.039Z,27.12
2023-05-09T19:20:30.376Z,27.44
2023-05-09T19:25:43.740Z,27.74
2023-05-09T19:28:14.585Z,27.08
2023-05-09T19:30:42.581Z,27.75
2023-05-09T19:33:12.083Z,27.68
2023-05-09T19:35:39.907Z,27.43
2023-05-09T19:38:08.796Z,27.50
2023-05-09T19:40:36.665Z,27.13
2023-05-09T19:43:04.747Z,27.13
2023-05-09T19:45:32.624Z,27.13
2023-05-09T19:48:00.672Z,27.46
2023-05-09T19:50:31.066Z,27.41
2023-05-09T19:52:59.418Z,28.08
2023-05-09T19:55:27.455Z,27.50
2023-05-09T19:57:55.298Z,27.58
2023-05-09T20:00:23.205Z,27.23
2023-05-09T20:02:51.147Z,27.10
2023-05-09T20:05:19.121Z,27.85
2023-05-09T20:10:34.252Z,27.57
2023-05-09T20:13:03.951Z,27.27
2023-05-09T20:15:32.232Z,27.47
2023-05-09T20:18:03.568Z,27.69
2023-05-09T20:20:32.691Z,27.83
2023-05-09T20:23:02.278Z,27.74
2023-05-09T20:25:30.556Z,27.80
2023-05-09T20:27:58.826Z,27.06
2023-05-09T20:30:27.242Z,27.81
2023-05-09T20:32:55.250Z,28.03
2023-05-09T20:35:23.232Z,27.96
2023-05-09T20:37:51.232Z,28.07
2023-05-09T20:40:20.780Z,27.79
2023-05-09T20:42:48.596Z,27.81
2023-05-09T20:45:16.578Z,27.80
2023-05-09T20:47:44.511Z,28.25
2023-05-09T20:50:12.549Z,27.64
2023-05-09T20:52:40.344Z,27.90
2023-05-09T20:55:08.813Z,28.01
2023-05-09T20:57:38.031Z,27.96
2023-05-09T21:00:07.666Z,27.88
2023-05-09T21:02:35.840Z,27.63
2023-05-09T21:05:03.829Z,27.79
2023-05-09T21:07:31.691Z,27.59
2023-05-09T21:09:59.722Z,27.76
2023-05-09T21:12:27.858Z,27.64
2023-05-09T21:14:56.953Z,27.84
2023-05-09T21:17:24.888Z,27.35
2023-05-09T21:19:52.697Z,27.96
2023-05-09T21:22:20.575Z,27.67
2023-05-09T21:24:48.492Z,28.27
2023-05-09T21:27:16.282Z,28.07
2023-05-09T21:29:44.054Z,28.24
2023-05-09T21:32:13.242Z,28.22
2023-05-09T21:34:41.100Z,28.72
2023-05-09T21:37:08.955Z,27.82
2023-05-09T21:39:36.862Z,28.41
2023-05-09T21:42:04.963Z,27.78
2023-05-09T21:44:33.160Z,27.76
2023-05-09T21:47:01.952Z,28.36
2023-05-09T21:49:31.811Z,28.05
2023-05-09T21:52:02.143Z,27.76
2023-05-09T21:54:31.712Z,28.47
2023-05-09T21:56:59.569Z,28.20
2023-05-09T21:59:28.219Z,28.63
2023-05-09T22:01:56.112Z,28.45
2023-05-09T22:04:24.008Z,28.75
2023-05-09T22:06:53.276Z,28.25
2023-05-09T22:09:21.218Z,28.17
2023-05-09T22:11:48.991Z,28.03
2023-05-09T22:14:16.977Z,28.74
2023-05-09T22:16:44.804Z,28.39
2023-05-09T22:19:12.728Z,28.05
2023-05-09T22:21:40.723Z,28.20
2023-05-09T22:24:10.035Z,28.44
2023-05-09T22:26:37.914Z,28.16
2023-05-09T22:29:06.001Z,28.52
2023-05-09T22:31:33.956Z,28.28
2023-05-09T22:34:02.063Z,28.55
2023-05-09T22:36:29.967Z,28.67
2023-05-09T22:38:57.912Z,28.61
2023-05-09T22:41:27.550Z,28.28
2023-05-09T22:43:55.463Z,28.67
2023-05-09T22:46:23.457Z,28.93
2023-05-09T22:48:51.324Z,28.84
2023-05-09T22:51:19.294Z,28.78
2023-05-09T22:53:51.871Z,29.12
2023-05-09T22:56:19.749Z,28.29
2023-05-09T22:58:49.719Z,28.86
2023-05-09T23:01:17.551Z,28.98
2023-05-09T23:03:45.667Z,28.77
2023-05-09T23:06:13.471Z,28.40
2023-05-09T23:08:41.428Z,28.40
2023-05-09T23:11:09.306Z,28.71
2023-05-09T23:13:37.125Z,28.64
2023-05-09T23:16:07.155Z,29.02
2023-05-09T23:18:34.959Z,28.97
2023-05-09T23:21:02.809Z,28.96
2023-05-09T23:23:30.602Z,28.71
2023-05-09T23:25:58.517Z,29.16
2023-05-09T23:28:27.345Z,29.24
2023-05-09T23:30:55.600Z,28.95
2023-05-09T23:33:24.768Z,29.15
2023-05-09T23:35:52.582Z,29.09
2023-05-09T23:38:20.760Z,28.79
2023-05-09T23:40:48.630Z,29.22
2023-05-09T23:43:16.445Z,29.08
2023-05-09T23:45:44.533Z,28.95
2023-05-09T23:48:12.521Z,29.31
2023-05-09T23:50:42.592Z,29.14
2023-05-09T23:53:10.783Z,29.37
2023-05-09T23:55:39.318Z,29.21
2023-05-09T23:58:07.164Z,29.17
